createdAt,value
2018-09-15T00:01:52.105Z,11.53
2018-09-15T00:04:22.267Z,10.28
2018-09-15T00:06:51.575Z,12.33
2018-09-15T00:09:20.780Z,6.12
2018-09-15T00:11:50.001Z,12.63
2018-09-15T00:14:19.199Z,10.07
2018-09-15T00:16:48.444Z,6.23
2018-09-15T00:19:17.673Z,6.97
2018-09-15T00:21:46.941Z,6.37
2018-09-15T00:24:16.175Z,9.95
2018-09-15T00:26:45.570Z,8.33
2018-09-15T00:29:15.376Z,5.12
2018-09-15T00:31:44.589Z,7.20
2018-09-15T00:34:14.359Z,6.80
2018-09-15T00:36:43.615Z,6.10
2018-09-15T00:39:13.210Z,6.43
2018-09-15T00:41:42.500Z,6.57
2018-09-15T00:44:11.703Z,5.87
2018-09-15T00:46:41.003Z,8.40
2018-09-15T00:49:10.214Z,4.47
2018-09-15T00:51:39.524Z,6.05
2018-09-15T00:54:08.674Z,6.93
2018-09-15T00:56:37.898Z,7.70
2018-09-15T00:59:07.179Z,11.07
2018-09-15T01:01:36.383Z,8.90
2018-09-15T01:04:08.627Z,10.00
2018-09-15T01:06:37.823Z,5.70
2018-09-15T01:09:08.478Z,8.63
2018-09-15T01:11:37.794Z,8.43
2018-09-15T01:14:07.250Z,7.50
2018-09-15T01:16:36.395Z,10.00
2018-09-15T01:19:05.693Z,8.65
2018-09-15T01:21:34.891Z,12.07
2018-09-15T01:24:04.107Z,9.80
2018-09-15T01:26:33.322Z,9.57
2018-09-15T01:29:02.558Z,12.93
2018-09-15T01:31:31.967Z,7.20
2018-09-15T01:34:01.195Z,10.17
2018-09-15T01:36:30.375Z,14.27
2018-09-15T01:38:59.572Z,9.23
2018-09-15T01:41:28.958Z,7.35
2018-09-15T01:43:58.193Z,9.73
2018-09-15T01:46:27.420Z,11.03
2018-09-15T01:48:56.686Z,7.17
2018-09-15T01:51:25.867Z,7.97
2018-09-15T01:53:55.062Z,8.73
2018-09-15T01:56:24.414Z,7.73
2018-09-15T01:58:53.684Z,10.17
2018-09-15T02:01:22.913Z,10.05
2018-09-15T02:03:52.134Z,9.70
2018-09-15T02:06:21.389Z,9.05
2018-09-15T02:08:50.597Z,5.80
2018-09-15T02:11:19.824Z,11.23
2018-09-15T02:13:49.068Z,6.85
2018-09-15T02:16:18.278Z,6.43
2018-09-15T02:18:47.498Z,7.93
2018-09-15T02:21:16.957Z,8.20
2018-09-15T02:23:46.151Z,6.10
2018-09-15T02:26:15.386Z,8.07
2018-09-15T02:28:44.590Z,11.27
2018-09-15T02:31:13.960Z,14.47
2018-09-15T02:33:43.171Z,8.63
2018-09-15T02:36:13.121Z,6.80
2018-09-15T02:38:42.269Z,7.17
2018-09-15T02:41:11.490Z,5.60
2018-09-15T02:43:40.684Z,8.78
2018-09-15T02:46:09.922Z,12.83
2018-09-15T02:48:39.124Z,8.03
2018-09-15T02:51:08.357Z,6.93
2018-09-15T02:53:37.553Z,7.50
2018-09-15T02:56:06.818Z,7.37
2018-09-15T02:58:36.048Z,6.53
2018-09-15T03:01:05.306Z,7.30
2018-09-15T03:03:34.515Z,5.10
2018-09-15T03:06:10.114Z,8.20
2018-09-15T03:08:39.328Z,12.10
2018-09-15T03:11:08.625Z,11.60
2018-09-15T03:13:37.954Z,5.30
2018-09-15T03:16:07.225Z,7.27
2018-09-15T03:18:36.463Z,5.70
2018-09-15T03:21:06.065Z,9.03
2018-09-15T03:23:35.292Z,12.03
2018-09-15T03:26:04.564Z,7.47
2018-09-15T03:28:33.756Z,6.25
2018-09-15T03:31:03.002Z,6.20
2018-09-15T03:33:32.174Z,8.20
2018-09-15T03:36:01.389Z,7.37
2018-09-15T03:38:30.563Z,7.17
2018-09-15T03:40:59.875Z,8.77
2018-09-15T03:43:29.042Z,8.75
2018-09-15T03:45:58.311Z,7.53
2018-09-15T03:48:27.540Z,6.20
2018-09-15T03:50:56.823Z,7.00
2018-09-15T03:53:31.509Z,9.17
2018-09-15T03:56:00.766Z,8.67
2018-09-15T03:58:30.021Z,11.30
2018-09-15T04:00:59.239Z,6.83
2018-09-15T04:03:28.456Z,9.07
2018-09-15T04:05:57.663Z,8.17
2018-09-15T04:08:26.914Z,13.15
2018-09-15T04:10:56.208Z,8.47
2018-09-15T04:13:25.449Z,6.90
2018-09-15T04:15:54.704Z,13.47
2018-09-15T04:18:23.971Z,11.22
2018-09-15T04:20:53.246Z,8.03
2018-09-15T04:23:22.490Z,13.07
2018-09-15T04:25:51.718Z,12.67
2018-09-15T04:28:21.000Z,9.80
2018-09-15T04:30:50.270Z,7.23
2018-09-15T04:33:19.535Z,7.10
2018-09-15T04:35:48.763Z,11.30
2018-09-15T04:38:17.987Z,8.27
2018-09-15T04:40:47.213Z,8.60
2018-09-15T04:43:16.424Z,7.63
2018-09-15T04:45:45.635Z,7.60
2018-09-15T04:48:14.863Z,17.13
2018-09-15T04:50:44.084Z,7.43
2018-09-15T04:53:13.289Z,8.93
2018-09-15T04:55:42.500Z,10.10
2018-09-15T04:58:11.735Z,18.33
2018-09-15T05:00:41.083Z,12.47
2018-09-15T05:03:10.335Z,11.80
2018-09-15T05:05:39.611Z,8.27
2018-09-15T05:08:09.136Z,11.63
2018-09-15T05:10:38.355Z,12.45
2018-09-15T05:13:07.735Z,8.20
2018-09-15T05:15:37.214Z,7.00
2018-09-15T05:18:06.552Z,12.13
2018-09-15T05:20:35.745Z,9.30
2018-09-15T05:23:05.035Z,13.40
2018-09-15T05:25:34.324Z,13.53
2018-09-15T05:28:03.559Z,10.17
2018-09-15T05:30:32.775Z,11.78
2018-09-15T05:33:02.041Z,11.40
2018-09-15T05:35:31.276Z,7.80
2018-09-15T05:38:00.478Z,9.38
2018-09-15T05:40:29.754Z,10.73
2018-09-15T05:42:58.996Z,9.20
2018-09-15T05:45:29.731Z,17.43
2018-09-15T05:47:58.957Z,13.60
2018-09-15T05:50:28.198Z,12.40
2018-09-15T05:52:57.464Z,13.70
2018-09-15T05:55:26.783Z,11.03
2018-09-15T05:57:56.012Z,24.82
2018-09-15T06:00:25.301Z,13.40
2018-09-15T06:02:54.490Z,10.13
2018-09-15T06:05:23.754Z,11.57
2018-09-15T06:07:52.947Z,10.80
2018-09-15T06:10:22.433Z,13.70
2018-09-15T06:12:51.680Z,6.90
2018-09-15T06:15:20.983Z,12.30
2018-09-15T06:17:50.183Z,17.60
2018-09-15T06:20:19.542Z,11.90
2018-09-15T06:22:48.715Z,15.87
2018-09-15T06:25:18.301Z,14.83
2018-09-15T06:27:47.800Z,13.00
2018-09-15T06:30:17.276Z,24.53
2018-09-15T06:32:46.508Z,15.40
2018-09-15T06:35:16.182Z,15.32
2018-09-15T06:37:45.559Z,16.27
2018-09-15T06:40:14.907Z,11.10
2018-09-15T06:42:44.074Z,8.60
2018-09-15T06:45:13.336Z,12.40
2018-09-15T06:47:42.519Z,12.77
2018-09-15T06:50:12.936Z,17.83
2018-09-15T06:52:42.119Z,21.23
2018-09-15T06:55:12.140Z,10.40
2018-09-15T06:57:41.364Z,12.80
2018-09-15T07:00:11.870Z,10.23
2018-09-15T07:02:41.075Z,13.93
2018-09-15T07:05:11.860Z,24.40
2018-09-15T07:07:41.087Z,16.10
2018-09-15T07:10:11.340Z,35.13
2018-09-15T07:12:40.580Z,23.40
2018-09-15T07:15:10.869Z,12.60
2018-09-15T07:17:40.082Z,20.50
2018-09-15T07:20:10.673Z,18.93
2018-09-15T07:22:39.835Z,18.57
2018-09-15T07:25:10.063Z,24.60
2018-09-15T07:27:39.245Z,25.17
2018-09-15T07:30:09.561Z,14.30
2018-09-15T07:32:38.824Z,25.03
2018-09-15T07:35:09.030Z,23.63
2018-09-15T07:37:39.046Z,16.83
2018-09-15T07:40:09.604Z,14.00
2018-09-15T07:42:38.851Z,9.27
2018-09-15T07:45:09.400Z,12.47
2018-09-15T07:47:38.587Z,14.27
2018-09-15T07:50:08.089Z,18.50
2018-09-15T07:52:37.265Z,16.70
2018-09-15T07:55:06.508Z,11.80
2018-09-15T07:57:35.819Z,13.80
2018-09-15T08:00:05.024Z,13.07
2018-09-15T08:02:34.260Z,15.27
2018-09-15T08:05:03.547Z,13.13
2018-09-15T08:07:32.812Z,8.63
2018-09-15T08:10:02.040Z,9.03
2018-09-15T08:12:31.241Z,7.33
2018-09-15T08:15:00.456Z,8.67
2018-09-15T08:17:29.720Z,9.43
2018-09-15T08:19:58.948Z,9.27
2018-09-15T08:22:28.264Z,12.60
2018-09-15T08:24:57.478Z,10.87
2018-09-15T08:27:26.725Z,10.07
2018-09-15T08:29:55.975Z,9.03
2018-09-15T08:32:25.207Z,9.33
2018-09-15T08:34:54.448Z,8.98
2018-09-15T08:37:23.754Z,13.33
2018-09-15T08:39:53.033Z,8.30
2018-09-15T08:42:22.293Z,6.77
2018-09-15T08:44:51.778Z,8.27
2018-09-15T08:47:21.021Z,6.13
2018-09-15T08:49:50.241Z,9.50
2018-09-15T08:52:19.467Z,13.28
2018-09-15T08:54:48.687Z,8.70
2018-09-15T08:57:17.910Z,12.40
2018-09-15T08:59:47.406Z,8.73
2018-09-15T09:02:16.619Z,6.97
2018-09-15T09:04:45.858Z,11.40
2018-09-15T09:07:15.085Z,9.43
2018-09-15T09:09:44.265Z,6.90
2018-09-15T09:12:13.440Z,4.87
2018-09-15T09:14:42.703Z,10.20
2018-09-15T09:17:11.954Z,5.50
2018-09-15T09:19:41.140Z,5.07
2018-09-15T09:22:11.425Z,4.67
2018-09-15T09:24:40.618Z,4.13
2018-09-15T09:27:10.232Z,5.45
2018-09-15T09:29:39.480Z,2.57
2018-09-15T09:32:09.328Z,3.47
2018-09-15T09:34:38.539Z,9.10
2018-09-15T09:37:08.291Z,2.87
2018-09-15T09:39:37.512Z,2.90
2018-09-15T09:42:07.331Z,7.93
2018-09-15T09:44:36.536Z,2.70
2018-09-15T09:47:05.762Z,4.43
2018-09-15T09:49:34.979Z,3.90
2018-09-15T09:52:04.223Z,10.30
2018-09-15T09:54:33.437Z,15.93
2018-09-15T09:57:02.724Z,9.87
2018-09-15T09:59:31.946Z,5.60
2018-09-15T10:02:34.219Z,5.65
2018-09-15T10:05:04.652Z,7.37
2018-09-15T10:07:35.167Z,5.87
2018-09-15T10:10:06.121Z,5.80
2018-09-15T10:12:36.662Z,3.73
2018-09-15T10:15:06.788Z,3.97
2018-09-15T10:17:37.160Z,2.80
2018-09-15T10:20:06.445Z,2.73
2018-09-15T10:22:35.674Z,4.80
2018-09-15T10:25:04.936Z,2.33
2018-09-15T10:27:34.126Z,5.77
2018-09-15T10:30:03.518Z,4.53
2018-09-15T10:32:32.719Z,3.90
2018-09-15T10:35:02.097Z,4.87
2018-09-15T10:37:31.313Z,2.70
2018-09-15T10:40:00.571Z,4.50
2018-09-15T10:42:29.851Z,5.62
2018-09-15T10:44:59.723Z,4.75
2018-09-15T10:47:28.978Z,4.93
2018-09-15T10:49:58.155Z,10.90
2018-09-15T10:52:27.431Z,11.63
2018-09-15T10:54:56.818Z,2.73
2018-09-15T10:57:26.049Z,4.87
2018-09-15T10:59:55.238Z,3.30
2018-09-15T11:02:24.469Z,3.60
2018-09-15T11:04:53.732Z,4.90
2018-09-15T11:07:22.954Z,7.90
2018-09-15T11:09:52.169Z,7.20
2018-09-15T11:12:21.379Z,2.90
2018-09-15T11:14:50.545Z,1.93
2018-09-15T11:17:19.776Z,2.40
2018-09-15T11:19:49.047Z,4.00
2018-09-15T11:22:18.260Z,1.70
2018-09-15T11:24:47.492Z,4.27
2018-09-15T11:27:16.692Z,3.83
2018-09-15T11:29:45.869Z,3.85
2018-09-15T11:32:15.277Z,1.53
2018-09-15T11:34:44.443Z,2.60
2018-09-15T11:37:13.711Z,3.70
2018-09-15T11:39:42.975Z,3.20
2018-09-15T11:42:12.242Z,2.20
2018-09-15T11:44:41.446Z,4.43
2018-09-15T11:47:10.691Z,2.83
2018-09-15T11:49:39.904Z,1.75
2018-09-15T11:52:09.619Z,1.93
2018-09-15T11:54:38.894Z,1.80
2018-09-15T11:57:08.399Z,4.12
2018-09-15T11:59:37.591Z,5.07
2018-09-15T12:02:07.194Z,3.70
2018-09-15T12:04:36.436Z,1.53
2018-09-15T12:07:05.764Z,2.10
2018-09-15T12:09:34.905Z,1.60
2018-09-15T12:12:04.136Z,3.27
2018-09-15T12:14:33.328Z,1.67
2018-09-15T12:17:02.551Z,7.07
2018-09-15T12:19:31.750Z,3.87
2018-09-15T12:22:01.015Z,1.90
2018-09-15T12:24:30.210Z,2.42
2018-09-15T12:26:59.471Z,7.80
2018-09-15T12:29:28.709Z,5.20
2018-09-15T12:31:57.919Z,4.20
2018-09-15T12:34:27.261Z,3.12
2018-09-15T12:36:57.508Z,3.27
2018-09-15T12:39:28.377Z,2.65
2018-09-15T12:41:57.739Z,2.63
2018-09-15T12:44:27.243Z,2.08
2018-09-15T12:46:56.506Z,2.90
2018-09-15T12:49:25.736Z,6.93
2018-09-15T12:51:55.027Z,1.87
2018-09-15T12:54:24.137Z,2.33
2018-09-15T12:56:53.342Z,2.13
2018-09-15T12:59:22.603Z,3.63
2018-09-15T13:01:51.941Z,1.73
2018-09-15T13:04:21.198Z,3.15
2018-09-15T13:06:50.540Z,2.83
2018-09-15T13:09:19.838Z,3.37
2018-09-15T13:11:49.135Z,2.10
2018-09-15T13:14:18.395Z,3.43
2018-09-15T13:16:47.627Z,5.57
2018-09-15T13:19:16.933Z,2.80
2018-09-15T13:21:46.162Z,1.40
2018-09-15T13:24:15.394Z,7.83
2018-09-15T13:26:44.612Z,3.97
2018-09-15T13:29:13.817Z,1.30
2018-09-15T13:31:43.090Z,2.60
2018-09-15T13:34:12.459Z,3.00
2018-09-15T13:36:41.694Z,2.30
2018-09-15T13:39:12.167Z,3.23
2018-09-15T13:41:41.412Z,5.30
2018-09-15T13:44:10.914Z,6.53
2018-09-15T13:46:40.143Z,2.40
2018-09-15T13:49:09.857Z,2.60
2018-09-15T13:51:39.122Z,1.77
2018-09-15T13:54:09.189Z,1.43
2018-09-15T13:56:38.437Z,1.97
2018-09-15T13:59:08.093Z,3.90
2018-09-15T14:01:37.311Z,1.60
2018-09-15T14:04:06.663Z,7.37
2018-09-15T14:06:35.868Z,9.23
2018-09-15T14:09:07.755Z,1.37
2018-09-15T14:11:37.128Z,2.97
2018-09-15T14:14:06.689Z,1.37
2018-09-15T14:16:36.096Z,3.00
2018-09-15T14:19:05.295Z,1.87
2018-09-15T14:21:34.636Z,2.10
2018-09-15T14:24:03.834Z,3.30
2018-09-15T14:26:33.149Z,2.70
2018-09-15T14:29:02.331Z,12.50
2018-09-15T14:31:31.588Z,2.07
2018-09-15T14:34:00.814Z,4.40
2018-09-15T14:36:30.086Z,3.27
2018-09-15T14:38:59.354Z,1.37
2018-09-15T14:41:28.687Z,4.30
2018-09-15T14:43:57.861Z,3.23
2018-09-15T14:46:27.116Z,2.00
2018-09-15T14:48:56.339Z,1.30
2018-09-15T14:51:25.658Z,1.30
2018-09-15T14:53:54.872Z,2.13
2018-09-15T14:56:24.264Z,2.27
2018-09-15T14:58:53.381Z,1.30
2018-09-15T15:01:22.689Z,1.37
2018-09-15T15:03:51.872Z,1.60
2018-09-15T15:06:21.273Z,2.40
2018-09-15T15:08:50.499Z,3.30
2018-09-15T15:11:19.917Z,11.40
2018-09-15T15:13:49.606Z,7.47
2018-09-15T15:16:18.941Z,8.53
2018-09-15T15:18:48.272Z,5.77
2018-09-15T15:21:17.548Z,3.77
2018-09-15T15:23:46.774Z,7.63
2018-09-15T15:26:16.090Z,1.57
2018-09-15T15:28:45.259Z,1.20
2018-09-15T15:31:14.596Z,2.43
2018-09-15T15:33:43.767Z,2.50
2018-09-15T15:36:13.044Z,4.27
2018-09-15T15:38:42.290Z,2.12
2018-09-15T15:41:11.638Z,1.63
2018-09-15T15:43:40.916Z,2.50
2018-09-15T15:46:10.272Z,3.33
2018-09-15T15:48:39.501Z,2.60
2018-09-15T15:51:09.253Z,1.47
2018-09-15T15:53:38.450Z,1.83
2018-09-15T15:56:07.929Z,2.00
2018-09-15T15:58:37.230Z,2.80
2018-09-15T16:01:06.988Z,1.37
2018-09-15T16:03:36.190Z,5.70
2018-09-15T16:06:05.440Z,2.77
2018-09-15T16:08:34.656Z,1.50
2018-09-15T16:11:03.996Z,3.47
2018-09-15T16:13:33.218Z,2.17
2018-09-15T16:16:02.468Z,1.50
2018-09-15T16:18:31.728Z,2.40
2018-09-15T16:21:01.943Z,2.98
2018-09-15T16:23:31.186Z,6.60
2018-09-15T16:26:00.496Z,2.80
2018-09-15T16:28:29.824Z,3.80
2018-09-15T16:30:59.075Z,3.50
2018-09-15T16:33:28.523Z,3.13
2018-09-15T16:35:57.759Z,2.25
2018-09-15T16:38:27.043Z,2.10
2018-09-15T16:40:56.342Z,1.50
2018-09-15T16:43:25.591Z,4.60
2018-09-15T16:45:54.885Z,2.50
2018-09-15T16:48:24.126Z,7.20
2018-09-15T16:50:53.382Z,6.57
2018-09-15T16:53:22.626Z,2.80
2018-09-15T16:55:51.917Z,4.13
2018-09-15T16:58:21.137Z,9.48
2018-09-15T17:00:50.554Z,2.10
2018-09-15T17:03:22.777Z,3.40
2018-09-15T17:05:52.759Z,1.50
2018-09-15T17:08:22.171Z,9.90
2018-09-15T17:10:51.412Z,2.07
2018-09-15T17:13:21.117Z,4.53
2018-09-15T17:15:50.464Z,3.00
2018-09-15T17:18:19.705Z,1.90
2018-09-15T17:20:48.993Z,5.90
2018-09-15T17:23:18.943Z,5.97
2018-09-15T17:25:48.173Z,1.93
2018-09-15T17:28:17.445Z,9.17
2018-09-15T17:30:46.682Z,5.83
2018-09-15T17:33:15.906Z,9.70
2018-09-15T17:35:45.211Z,2.83
2018-09-15T17:38:14.500Z,4.62
2018-09-15T17:40:43.750Z,4.47
2018-09-15T17:43:13.001Z,2.40
2018-09-15T17:45:42.277Z,3.70
2018-09-15T17:48:11.468Z,2.77
2018-09-15T17:50:41.615Z,4.50
2018-09-15T17:53:11.058Z,2.50
2018-09-15T17:55:40.323Z,2.10
2018-09-15T17:58:09.796Z,3.20
2018-09-15T18:00:39.204Z,5.20
2018-09-15T18:03:08.939Z,2.47
2018-09-15T18:05:38.276Z,6.78
2018-09-15T18:08:07.600Z,5.00
2018-09-15T18:10:37.003Z,2.63
2018-09-15T18:13:06.278Z,5.17
2018-09-15T18:15:35.529Z,4.12
2018-09-15T18:18:05.739Z,6.60
2018-09-15T18:20:35.016Z,4.00
2018-09-15T18:23:04.236Z,3.07
2018-09-15T18:25:33.512Z,4.03
2018-09-15T18:28:02.915Z,3.13
2018-09-15T18:30:32.225Z,7.50
2018-09-15T18:33:01.484Z,8.68
2018-09-15T18:35:30.761Z,4.80
2018-09-15T18:38:00.036Z,9.37
2018-09-15T18:40:29.337Z,5.60
2018-09-15T18:42:58.577Z,8.57
2018-09-15T18:45:27.810Z,4.60
2018-09-15T18:47:57.032Z,7.47
2018-09-15T18:50:26.331Z,4.80
2018-09-15T18:52:55.548Z,4.53
2018-09-15T18:55:24.835Z,4.28
2018-09-15T18:57:54.078Z,5.30
2018-09-15T19:00:23.473Z,5.20
2018-09-15T19:02:52.568Z,4.50
2018-09-15T19:05:22.077Z,13.77
2018-09-15T19:07:51.264Z,6.23
2018-09-15T19:10:20.679Z,7.73
2018-09-15T19:12:49.996Z,7.77
2018-09-15T19:15:19.634Z,5.07
2018-09-15T19:17:48.907Z,8.93
2018-09-15T19:20:18.569Z,4.60
2018-09-15T19:22:47.796Z,3.97
2018-09-15T19:25:18.108Z,7.97
2018-09-15T19:27:47.414Z,7.53
2018-09-15T19:30:18.614Z,5.47
2018-09-15T19:32:48.031Z,6.67
2018-09-15T19:35:18.477Z,5.47
2018-09-15T19:37:47.854Z,5.47
2018-09-15T19:40:18.019Z,7.40
2018-09-15T19:42:47.263Z,7.97
2018-09-15T19:45:17.846Z,4.30
2018-09-15T19:47:47.112Z,6.77
2018-09-15T19:50:17.867Z,8.50
2018-09-15T19:52:48.069Z,5.77
2018-09-15T19:55:17.633Z,11.20
2018-09-15T19:57:46.867Z,6.00
2018-09-15T20:00:17.347Z,9.47
2018-09-15T20:02:46.657Z,6.27
2018-09-15T20:05:16.917Z,8.70
2018-09-15T20:07:46.170Z,5.80
2018-09-15T20:10:16.618Z,4.00
2018-09-15T20:12:45.834Z,4.83
2018-09-15T20:15:21.748Z,5.40
2018-09-15T20:17:50.995Z,7.53
2018-09-15T20:20:19.316Z,4.20
2018-09-15T20:22:48.995Z,7.40
2018-09-15T20:25:18.227Z,8.30
2018-09-15T20:27:47.502Z,6.80
2018-09-15T20:30:17.228Z,8.17
2018-09-15T20:32:47.408Z,7.13
2018-09-15T20:35:18.229Z,5.37
2018-09-15T20:37:47.500Z,13.20
2018-09-15T20:40:17.501Z,9.57
2018-09-15T20:42:46.756Z,15.23
2018-09-15T20:45:17.263Z,11.08
2018-09-15T20:47:46.512Z,5.87
2018-09-15T20:50:18.132Z,11.73
2018-09-15T20:52:47.361Z,12.40
2018-09-15T20:55:18.199Z,12.68
2018-09-15T20:57:47.455Z,10.93
2018-09-15T21:00:17.801Z,11.20
2018-09-15T21:02:47.064Z,17.50
2018-09-15T21:05:18.057Z,10.55
2018-09-15T21:07:47.283Z,12.27
2018-09-15T21:10:17.615Z,11.10
2018-09-15T21:12:46.824Z,13.47
2018-09-15T21:15:16.859Z,12.55
2018-09-15T21:17:46.075Z,8.77
2018-09-15T21:20:16.779Z,10.60
2018-09-15T21:22:45.994Z,8.63
2018-09-15T21:25:15.931Z,9.83
2018-09-15T21:27:45.128Z,8.80
2018-09-15T21:30:15.872Z,11.87
2018-09-15T21:32:45.083Z,6.35
2018-09-15T21:35:15.636Z,8.63
2018-09-15T21:37:44.889Z,7.30
2018-09-15T21:40:15.899Z,11.20
2018-09-15T21:42:45.140Z,5.80
2018-09-15T21:45:15.437Z,8.90
2018-09-15T21:47:44.652Z,19.77
2018-09-15T21:50:14.991Z,11.03
2018-09-15T21:52:44.224Z,7.90
2018-09-15T21:55:15.423Z,10.75
2018-09-15T21:57:44.624Z,8.67
2018-09-15T22:00:15.676Z,11.53
2018-09-15T22:02:44.933Z,7.13
2018-09-15T22:05:16.309Z,7.10
2018-09-15T22:07:45.539Z,10.70
2018-09-15T22:10:16.675Z,12.30
2018-09-15T22:12:45.895Z,10.87
2018-09-15T22:15:24.972Z,14.28
2018-09-15T22:17:55.157Z,9.97
2018-09-15T22:20:24.487Z,10.00
2018-09-15T22:22:53.726Z,7.78
2018-09-15T22:25:22.972Z,13.57
2018-09-15T22:27:52.200Z,9.43
2018-09-15T22:30:21.462Z,7.50
2018-09-15T22:32:50.663Z,9.63
2018-09-15T22:35:19.928Z,11.00
2018-09-15T22:37:49.158Z,7.03
2018-09-15T22:40:18.600Z,11.73
2018-09-15T22:42:47.846Z,7.90
2018-09-15T22:45:18.724Z,7.17
2018-09-15T22:47:48.827Z,9.00
2018-09-15T22:50:18.358Z,10.10
2018-09-15T22:52:47.567Z,8.40
2018-09-15T22:55:19.161Z,5.83
2018-09-15T22:57:48.468Z,5.40
2018-09-15T23:00:18.303Z,9.90
2018-09-15T23:02:47.504Z,11.30
2018-09-15T23:05:17.700Z,7.70
2018-09-15T23:07:46.921Z,9.83
2018-09-15T23:10:18.036Z,12.73
2018-09-15T23:12:47.267Z,6.60
2018-09-15T23:15:16.842Z,5.60
2018-09-15T23:17:46.186Z,6.35
2018-09-15T23:20:16.440Z,6.03
2018-09-15T23:22:45.626Z,11.53
2018-09-15T23:25:15.718Z,7.93
2018-09-15T23:27:44.964Z,6.53
2018-09-15T23:30:15.082Z,9.50
2018-09-15T23:32:44.332Z,6.37
2018-09-15T23:35:15.061Z,9.30
2018-09-15T23:37:44.268Z,4.57
2018-09-15T23:40:14.714Z,6.55
2018-09-15T23:43:09.924Z,7.83
2018-09-15T23:45:39.299Z,4.20
2018-09-15T23:48:08.531Z,6.63
2018-09-15T23:50:37.760Z,7.33
2018-09-15T23:53:06.994Z,4.30
2018-09-15T23:55:36.221Z,6.40
2018-09-15T23:58:05.728Z,7.55
